createdAt,value
2023-05-10T00:00:38.455Z,71.07
2023-05-10T00:03:11.059Z,70.99
2023-05-10T00:05:38.143Z,71.27
2023-05-10T00:08:04.771Z,71.69
2023-05-10T00:10:31.301Z,71.97
2023-05-10T00:12:57.905Z,72.04
2023-05-10T00:15:24.473Z,72.22
2023-05-10T00:17:51.327Z,72.52
2023-05-10T00:20:18.299Z,72.77
2023-05-10T00:22:45.202Z,73.04
2023-05-10T00:25:11.807Z,73.58
2023-05-10T00:27:38.698Z,74.27
2023-05-10T00:30:06.652Z,74.45
2023-05-10T00:32:33.404Z,74.66
2023-05-10T00:35:00.305Z,74.97
2023-05-10T00:37:27.547Z,74.99
2023-05-10T00:39:55.073Z,74.92
2023-05-10T00:42:22.603Z,74.77
2023-05-10T00:44:49.521Z,74.58
2023-05-10T00:47:17.112Z,74.27
2023-05-10T00:49:43.973Z,74.35
2023-05-10T00:52:11.911Z,74.20
2023-05-10T00:54:38.671Z,74.58
2023-05-10T00:57:05.374Z,74.43
2023-05-10T00:59:32.710Z,74.23
2023-05-10T01:01:59.565Z,74.18
2023-05-10T01:04:26.281Z,74.83
2023-05-10T01:06:54.029Z,74.60
2023-05-10T01:09:21.008Z,74.92
2023-05-10T01:11:48.151Z,74.95
2023-05-10T01:14:15.482Z,75.06
2023-05-10T01:16:42.741Z,75.63
2023-05-10T01:19:17.020Z,76.00
2023-05-10T01:21:53.916Z,76.48
2023-05-10T01:24:40.200Z,76.90
2023-05-10T01:27:17.626Z,76.25
2023-05-10T01:32:33.877Z,76.35
2023-05-10T01:35:06.906Z,76.35
2023-05-10T01:37:40.883Z,75.96
2023-05-10T01:40:19.155Z,75.88
2023-05-10T01:42:48.285Z,75.60
2023-05-10T01:45:21.114Z,75.59
2023-05-10T01:47:50.962Z,75.46
2023-05-10T01:50:20.194Z,75.57
2023-05-10T01:52:55.200Z,75.95
2023-05-10T01:55:23.786Z,76.51
2023-05-10T01:57:53.275Z,76.80
2023-05-10T02:00:20.788Z,77.08
2023-05-10T02:02:49.231Z,77.65
2023-05-10T02:05:16.732Z,77.67
2023-05-10T02:07:44.089Z,78.01
2023-05-10T02:10:12.109Z,77.55
2023-05-10T02:12:41.537Z,77.40
2023-05-10T02:15:09.367Z,77.28
2023-05-10T02:17:37.554Z,77.50
2023-05-10T02:20:11.280Z,77.61
2023-05-10T02:22:39.135Z,78.16
2023-05-10T02:25:07.342Z,77.87
2023-05-10T02:27:35.187Z,78.22
2023-05-10T02:30:02.068Z,78.54
2023-05-10T02:32:29.686Z,78.93
2023-05-10T02:34:57.721Z,79.05
2023-05-10T02:37:25.574Z,79.10
2023-05-10T02:39:54.381Z,79.24
2023-05-10T02:42:25.131Z,79.47
2023-05-10T02:44:53.329Z,79.43
2023-05-10T02:47:20.363Z,79.65
2023-05-10T02:49:47.585Z,80.97
2023-05-10T02:52:17.326Z,81.16
2023-05-10T02:54:50.436Z,81.30
2023-05-10T02:57:20.534Z,81.14
2023-05-10T02:59:47.174Z,80.86
2023-05-10T03:02:13.898Z,80.63
2023-05-10T03:04:40.693Z,80.54
2023-05-10T03:07:08.100Z,80.70
2023-05-10T03:09:37.496Z,80.74
2023-05-10T03:12:04.343Z,80.92
2023-05-10T03:14:31.339Z,80.65
2023-05-10T03:17:07.681Z,80.53
2023-05-10T03:19:37.057Z,80.72
2023-05-10T03:22:05.664Z,80.67
2023-05-10T03:24:35.748Z,80.32
2023-05-10T03:27:04.645Z,80.09
2023-05-10T03:29:32.062Z,79.74
2023-05-10T03:31:59.867Z,79.45
2023-05-10T03:34:27.102Z,78.88
2023-05-10T03:36:53.806Z,78.71
2023-05-10T03:39:21.653Z,78.42
2023-05-10T03:41:51.377Z,78.63
2023-05-10T03:44:17.958Z,78.54
2023-05-10T03:46:44.652Z,78.67
2023-05-10T03:49:11.573Z,78.79
2023-05-10T03:51:38.376Z,78.69
2023-05-10T03:54:05.060Z,77.58
2023-05-10T03:56:32.969Z,77.19
2023-05-10T03:59:00.638Z,76.62
2023-05-10T04:01:27.437Z,76.48
2023-05-10T04:03:54.305Z,75.88
2023-05-10T04:06:21.151Z,74.42
2023-05-10T04:08:47.857Z,72.97
2023-05-10T04:11:14.498Z,73.51
2023-05-10T04:13:41.160Z,73.48
2023-05-10T04:16:08.009Z,72.58
2023-05-10T04:18:35.203Z,71.53
2023-05-10T04:21:01.902Z,69.57
2023-05-10T04:23:32.179Z,70.03
2023-05-10T04:26:02.317Z,69.14
2023-05-10T04:28:28.915Z,68.92
2023-05-10T04:31:09.533Z,68.29
2023-05-10T04:33:36.974Z,66.51
2023-05-10T04:36:03.969Z,66.89
2023-05-10T04:38:30.898Z,66.91
2023-05-10T04:41:07.725Z,66.39
2023-05-10T04:43:34.641Z,65.13
2023-05-10T04:46:01.385Z,64.73
2023-05-10T04:48:28.299Z,63.90
2023-05-10T04:50:54.972Z,63.80
2023-05-10T04:53:21.720Z,62.33
2023-05-10T04:55:49.377Z,62.00
2023-05-10T04:58:17.163Z,59.95
2023-05-10T05:00:44.814Z,59.51
2023-05-10T05:03:14.729Z,58.95
2023-05-10T05:05:41.827Z,58.50
2023-05-10T05:08:09.515Z,56.55
2023-05-10T05:10:37.916Z,56.37
2023-05-10T05:13:05.017Z,56.93
2023-05-10T05:15:32.349Z,57.48
2023-05-10T05:18:01.753Z,56.32
2023-05-10T05:20:28.743Z,54.96
2023-05-10T05:22:56.046Z,54.07
2023-05-10T05:25:23.736Z,53.44
2023-05-10T05:27:50.753Z,51.87
2023-05-10T05:30:18.044Z,51.85
2023-05-10T05:32:46.699Z,50.78
2023-05-10T05:35:13.856Z,49.63
2023-05-10T05:37:41.869Z,49.43
2023-05-10T05:40:09.638Z,49.57
2023-05-10T05:42:42.746Z,48.58
2023-05-10T05:45:13.426Z,49.62
2023-05-10T05:47:41.445Z,48.98
2023-05-10T05:50:23.513Z,48.16
2023-05-10T05:53:45.163Z,48.04
2023-05-10T05:56:40.505Z,46.02
2023-05-10T05:59:24.166Z,45.22
2023-05-10T06:01:56.544Z,44.81
2023-05-10T06:04:49.350Z,43.56
2023-05-10T06:07:26.441Z,42.90
2023-05-10T06:09:57.845Z,42.64
2023-05-10T06:12:33.447Z,41.98
2023-05-10T06:15:09.367Z,39.98
2023-05-10T06:17:39.302Z,40.07
2023-05-10T06:20:16.180Z,39.45
2023-05-10T06:22:44.720Z,38.70
2023-05-10T06:25:16.324Z,39.13
2023-05-10T06:27:52.709Z,38.74
2023-05-10T06:30:27.940Z,37.99
2023-05-10T06:33:07.463Z,37.66
2023-05-10T06:35:37.024Z,37.31
2023-05-10T06:38:16.725Z,37.51
2023-05-10T06:40:50.744Z,36.69
2023-05-10T06:43:22.724Z,36.73
2023-05-10T06:45:56.026Z,36.31
2023-05-10T06:48:28.467Z,36.39
2023-05-10T06:51:07.760Z,36.04
2023-05-10T06:53:51.327Z,35.37
2023-05-10T06:56:25.650Z,35.51
2023-05-10T06:58:58.336Z,35.18
2023-05-10T07:01:34.086Z,35.40
2023-05-10T07:04:13.058Z,35.46
2023-05-10T07:06:48.548Z,35.64
2023-05-10T07:09:18.122Z,34.90
2023-05-10T07:11:51.565Z,35.75
2023-05-10T07:14:20.985Z,35.52
2023-05-10T07:16:52.308Z,35.97
2023-05-10T07:19:26.117Z,35.47
2023-05-10T07:21:55.598Z,34.73
2023-05-10T07:24:31.545Z,34.93
2023-05-10T07:27:06.107Z,34.04
2023-05-10T07:29:36.955Z,33.82
2023-05-10T07:32:04.281Z,34.10
2023-05-10T07:34:35.173Z,33.50
2023-05-10T07:37:02.748Z,33.50
2023-05-10T07:39:31.682Z,33.11
2023-05-10T07:41:59.029Z,32.62
2023-05-10T07:44:26.655Z,33.45
2023-05-10T07:47:04.541Z,32.41
2023-05-10T07:49:34.378Z,32.37
2023-05-10T07:52:03.686Z,31.95
2023-05-10T07:54:32.034Z,31.99
2023-05-10T07:57:00.559Z,31.11
2023-05-10T07:59:27.896Z,31.10
2023-05-10T08:02:00.502Z,31.43
2023-05-10T08:04:31.482Z,31.01
2023-05-10T08:06:58.720Z,30.57
2023-05-10T08:09:26.354Z,30.62
2023-05-10T08:11:54.206Z,30.52
2023-05-10T08:14:28.364Z,30.25
2023-05-10T08:17:00.667Z,30.73
2023-05-10T08:19:29.972Z,30.60
2023-05-10T08:21:57.812Z,29.94
2023-05-10T08:24:28.536Z,29.28
2023-05-10T08:26:56.893Z,29.28
2023-05-10T08:29:26.609Z,29.81
2023-05-10T08:32:01.763Z,30.22
2023-05-10T08:34:29.034Z,29.16
2023-05-10T08:36:57.098Z,30.00
2023-05-10T08:39:30.297Z,30.13
2023-05-10T08:42:02.155Z,28.97
2023-05-10T08:44:31.814Z,28.84
2023-05-10T08:47:04.874Z,28.55
2023-05-10T08:49:34.206Z,28.11
2023-05-10T08:52:15.040Z,28.34
2023-05-10T08:54:50.525Z,27.86
2023-05-10T08:57:20.254Z,27.58
2023-05-10T08:59:47.794Z,27.68
2023-05-10T09:02:18.683Z,27.20
2023-05-10T09:04:49.995Z,27.56
2023-05-10T09:07:17.637Z,28.06
2023-05-10T09:09:45.214Z,27.55
2023-05-10T09:12:13.667Z,27.12
2023-05-10T09:14:43.285Z,26.84
2023-05-10T09:17:11.356Z,27.23
2023-05-10T09:19:41.468Z,27.59
2023-05-10T09:22:09.568Z,27.71
2023-05-10T09:24:42.749Z,27.00
2023-05-10T09:27:16.432Z,27.18
2023-05-10T09:29:56.112Z,26.04
2023-05-10T09:32:39.531Z,25.52
2023-05-10T09:35:36.635Z,25.61
2023-05-10T09:38:06.674Z,25.10
2023-05-10T09:40:33.947Z,24.08
2023-05-10T09:43:03.459Z,24.96
2023-05-10T09:45:34.161Z,23.47
2023-05-10T09:48:03.577Z,23.28
2023-05-10T09:50:31.389Z,23.38
2023-05-10T09:53:06.068Z,23.61
2023-05-10T09:55:44.579Z,21.59
2023-05-10T09:58:16.031Z,21.72
2023-05-10T10:00:44.401Z,20.67
2023-05-10T10:03:19.630Z,20.25
2023-05-10T10:05:50.574Z,21.54
2023-05-10T10:08:19.615Z,21.72
2023-05-10T10:10:48.799Z,21.18
2023-05-10T10:13:16.298Z,21.39
2023-05-10T10:15:44.737Z,22.15
2023-05-10T10:18:15.569Z,22.92
2023-05-10T10:20:43.093Z,23.16
2023-05-10T10:23:11.189Z,22.59
2023-05-10T10:25:38.703Z,23.34
2023-05-10T10:28:26.091Z,22.69
2023-05-10T10:30:56.530Z,22.72
2023-05-10T10:33:33.694Z,21.79
2023-05-10T10:36:01.838Z,22.02
2023-05-10T10:38:42.369Z,22.69
2023-05-10T10:41:27.541Z,22.93
2023-05-10T10:44:14.690Z,24.38
2023-05-10T10:47:01.022Z,25.77
2023-05-10T10:49:32.950Z,25.25
2023-05-10T10:52:19.971Z,25.19
2023-05-10T10:54:50.431Z,26.12
2023-05-10T10:57:18.607Z,26.83
2023-05-10T10:59:45.920Z,27.52
2023-05-10T11:02:33.167Z,26.89
2023-05-10T11:05:00.079Z,27.17
2023-05-10T11:07:27.034Z,26.51
2023-05-10T11:09:54.506Z,28.62
2023-05-10T11:12:21.167Z,28.99
2023-05-10T11:14:50.388Z,29.32
2023-05-10T11:17:43.658Z,28.74
2023-05-10T11:20:11.115Z,28.19
2023-05-10T11:22:54.059Z,27.91
2023-05-10T11:25:26.428Z,27.34
2023-05-10T11:27:53.182Z,28.21
2023-05-10T11:30:20.909Z,29.34
2023-05-10T11:32:47.839Z,28.54
2023-05-10T11:35:15.190Z,29.33
2023-05-10T11:37:44.168Z,29.32
2023-05-10T11:40:11.419Z,28.98
2023-05-10T11:42:38.568Z,29.52
2023-05-10T11:45:05.905Z,28.91
2023-05-10T11:47:32.779Z,31.46
2023-05-10T11:50:00.428Z,30.47
2023-05-10T11:52:27.194Z,31.62
2023-05-10T11:54:54.662Z,32.11
2023-05-10T11:57:25.994Z,31.14
2023-05-10T11:59:56.725Z,31.85
2023-05-10T12:02:23.589Z,32.69
2023-05-10T12:04:51.266Z,31.58
2023-05-10T12:07:18.021Z,31.30
2023-05-10T12:09:45.455Z,31.86
2023-05-10T12:12:20.457Z,32.42
2023-05-10T12:14:51.603Z,33.22
2023-05-10T12:17:18.330Z,32.73
2023-05-10T12:19:45.135Z,32.13
2023-05-10T12:22:12.008Z,32.39
2023-05-10T12:24:39.378Z,32.67
2023-05-10T12:27:08.518Z,33.02
2023-05-10T12:29:35.181Z,33.14
2023-05-10T12:32:03.037Z,32.11
2023-05-10T12:34:34.583Z,32.29
2023-05-10T12:37:01.489Z,32.61
2023-05-10T12:39:47.094Z,32.32
2023-05-10T12:42:13.940Z,31.96
2023-05-10T12:44:41.638Z,33.03
2023-05-10T12:47:08.352Z,32.99
2023-05-10T12:49:35.144Z,33.59
2023-05-10T12:52:02.163Z,34.26
2023-05-10T12:54:28.986Z,34.20
2023-05-10T12:56:55.864Z,34.17
2023-05-10T12:59:23.238Z,35.40
2023-05-10T13:01:49.934Z,34.72
2023-05-10T13:04:16.672Z,35.24
2023-05-10T13:06:43.327Z,34.20
2023-05-10T13:09:10.057Z,34.21
2023-05-10T13:11:37.352Z,34.19
2023-05-10T13:14:04.004Z,34.88
2023-05-10T13:16:30.847Z,35.02
2023-05-10T13:18:57.810Z,35.66
2023-05-10T13:21:25.542Z,35.02
2023-05-10T13:23:53.168Z,35.05
2023-05-10T13:26:20.415Z,35.36
2023-05-10T13:28:46.995Z,35.43
2023-05-10T13:31:13.598Z,35.65
2023-05-10T13:33:40.292Z,34.99
2023-05-10T13:36:07.123Z,35.54
2023-05-10T13:38:33.868Z,35.49
2023-05-10T13:41:00.852Z,36.09
2023-05-10T13:43:27.356Z,36.02
2023-05-10T13:45:53.871Z,37.49
2023-05-10T13:48:20.698Z,37.51
2023-05-10T13:50:47.499Z,36.74
2023-05-10T13:53:14.722Z,36.77
2023-05-10T13:55:41.648Z,36.43
2023-05-10T13:58:08.339Z,36.79
2023-05-10T14:00:35.168Z,36.48
2023-05-10T14:03:01.820Z,36.65
2023-05-10T14:05:28.643Z,36.29
2023-05-10T14:07:55.677Z,37.08
2023-05-10T14:10:22.491Z,36.81
2023-05-10T14:12:50.063Z,36.81
2023-05-10T14:15:17.478Z,36.67
2023-05-10T14:17:44.571Z,36.26
2023-05-10T14:20:11.581Z,36.40
2023-05-10T14:22:38.327Z,36.06
2023-05-10T14:25:05.165Z,37.01
2023-05-10T14:27:32.745Z,36.65
2023-05-10T14:29:59.435Z,36.64
2023-05-10T14:32:27.753Z,36.15
2023-05-10T14:34:54.344Z,36.51
2023-05-10T14:37:21.423Z,36.35
2023-05-10T14:39:48.127Z,36.41
2023-05-10T14:42:14.763Z,36.60
2023-05-10T14:44:41.315Z,35.80
2023-05-10T14:47:08.893Z,35.85
2023-05-10T14:49:36.740Z,35.50
2023-05-10T14:52:03.568Z,34.91
2023-05-10T14:54:30.421Z,35.34
2023-05-10T14:56:57.057Z,34.97
2023-05-10T14:59:23.966Z,35.07
2023-05-10T15:01:51.100Z,35.42
2023-05-10T15:04:18.526Z,35.35
2023-05-10T15:06:45.602Z,35.86
2023-05-10T15:09:12.491Z,35.67
2023-05-10T15:11:39.243Z,35.71
2023-05-10T15:14:06.508Z,35.82
2023-05-10T15:16:35.845Z,36.00
2023-05-10T15:19:03.293Z,35.93
2023-05-10T15:21:35.499Z,36.68
2023-05-10T15:24:02.325Z,36.13
2023-05-10T15:26:28.984Z,36.44
2023-05-10T15:28:55.780Z,35.99
2023-05-10T15:31:22.886Z,36.26
2023-05-10T15:33:49.707Z,36.44
2023-05-10T15:36:18.137Z,36.61
2023-05-10T15:38:45.006Z,36.28
2023-05-10T15:41:12.216Z,37.05
2023-05-10T15:43:38.908Z,36.58
2023-05-10T15:46:06.447Z,37.36
2023-05-10T15:48:33.308Z,36.95
2023-05-10T15:50:59.926Z,36.29
2023-05-10T15:53:26.570Z,37.04
2023-05-10T15:55:53.264Z,37.86
2023-05-10T15:58:19.899Z,37.24
2023-05-10T16:00:46.702Z,36.54
2023-05-10T16:03:13.496Z,37.55
2023-05-10T16:05:40.525Z,38.13
2023-05-10T16:08:07.558Z,38.32
2023-05-10T16:10:34.473Z,37.39
2023-05-10T16:13:03.180Z,37.90
2023-05-10T16:15:29.825Z,38.36
2023-05-10T16:17:57.256Z,38.70
2023-05-10T16:20:24.119Z,37.65
2023-05-10T16:22:51.153Z,37.73
2023-05-10T16:25:18.266Z,38.24
2023-05-10T16:27:45.245Z,38.44
2023-05-10T16:30:11.957Z,38.32
2023-05-10T16:32:38.912Z,38.75
2023-05-10T16:35:05.993Z,38.38
2023-05-10T16:37:32.634Z,38.76
2023-05-10T16:39:59.260Z,39.62
2023-05-10T16:42:26.380Z,40.01
2023-05-10T16:44:53.750Z,40.44
2023-05-10T16:47:20.339Z,40.53
2023-05-10T16:49:47.080Z,40.60
2023-05-10T16:52:13.717Z,40.56
2023-05-10T16:54:40.785Z,40.48
2023-05-10T16:57:07.993Z,40.96
2023-05-10T16:59:34.559Z,40.91
2023-05-10T17:02:01.189Z,41.24
2023-05-10T17:04:28.109Z,41.05
2023-05-10T17:06:54.923Z,41.54
2023-05-10T17:09:21.581Z,41.63
2023-05-10T17:11:48.207Z,41.59
2023-05-10T17:14:14.764Z,41.92
2023-05-10T17:16:41.685Z,42.42
2023-05-10T17:19:08.801Z,42.92
2023-05-10T17:21:35.528Z,42.59
2023-05-10T17:24:02.165Z,42.02
2023-05-10T17:26:29.381Z,41.80
2023-05-10T17:28:57.246Z,42.00
2023-05-10T17:31:24.080Z,42.52
2023-05-10T17:33:50.796Z,42.78
2023-05-10T17:36:17.372Z,43.31
2023-05-10T17:38:44.144Z,43.18
2023-05-10T17:41:10.814Z,43.41
2023-05-10T17:43:37.761Z,43.69
2023-05-10T17:46:04.688Z,43.95
2023-05-10T17:48:31.491Z,44.71
2023-05-10T17:50:57.993Z,45.16
2023-05-10T17:53:25.203Z,45.84
2023-05-10T17:55:51.963Z,46.01
2023-05-10T17:58:18.713Z,46.47
2023-05-10T18:00:45.748Z,47.07
2023-05-10T18:03:12.260Z,47.56
2023-05-10T18:05:39.012Z,48.10
2023-05-10T18:08:06.781Z,48.18
2023-05-10T18:10:33.686Z,48.59
2023-05-10T18:13:01.928Z,48.71
2023-05-10T18:15:32.609Z,49.04
2023-05-10T18:18:03.584Z,49.45
2023-05-10T18:20:30.844Z,50.17
2023-05-10T18:22:58.013Z,50.29
2023-05-10T18:25:25.145Z,50.30
2023-05-10T18:27:51.958Z,50.62
2023-05-10T18:30:18.594Z,50.89
2023-05-10T18:32:45.390Z,50.31
2023-05-10T18:35:12.118Z,50.08
2023-05-10T18:37:38.955Z,50.14
2023-05-10T18:40:08.929Z,50.25
2023-05-10T18:42:36.044Z,50.07
2023-05-10T18:45:03.018Z,50.28
2023-05-10T18:47:30.549Z,50.54
2023-05-10T18:49:57.453Z,51.86
2023-05-10T18:52:24.348Z,52.47
2023-05-10T18:54:51.097Z,52.21
2023-05-10T18:57:17.934Z,52.40
2023-05-10T18:59:44.570Z,52.22
2023-05-10T19:02:11.373Z,52.25
2023-05-10T19:04:38.655Z,52.33
2023-05-10T19:07:05.438Z,52.92
2023-05-10T19:09:32.062Z,53.24
2023-05-10T19:11:58.777Z,53.00
2023-05-10T19:14:25.712Z,53.24
2023-05-10T19:16:53.724Z,53.89
2023-05-10T19:19:20.587Z,53.91
2023-05-10T19:21:47.443Z,54.01
2023-05-10T19:24:14.209Z,53.51
2023-05-10T19:26:40.845Z,53.65
2023-05-10T19:29:07.730Z,54.58
2023-05-10T19:31:34.653Z,54.43
2023-05-10T19:34:03.670Z,54.73
2023-05-10T19:36:30.907Z,55.00
2023-05-10T19:38:57.429Z,54.70
2023-05-10T19:41:24.244Z,55.06
2023-05-10T19:43:52.927Z,54.93
2023-05-10T19:46:20.466Z,55.15
2023-05-10T19:48:51.010Z,55.56
2023-05-10T19:51:17.813Z,55.04
2023-05-10T19:53:44.629Z,55.47
2023-05-10T19:56:12.130Z,55.59
2023-05-10T19:58:38.903Z,55.98
2023-05-10T20:01:07.070Z,55.86
2023-05-10T20:03:34.403Z,55.57
2023-05-10T20:06:01.628Z,55.46
2023-05-10T20:08:28.225Z,56.29
2023-05-10T20:10:58.355Z,56.24
2023-05-10T20:13:25.097Z,56.34
2023-05-10T20:15:54.860Z,56.71
2023-05-10T20:18:21.910Z,56.85
2023-05-10T20:20:52.386Z,57.20
2023-05-10T20:23:19.109Z,57.99
2023-05-10T20:25:46.001Z,57.62
2023-05-10T20:28:12.565Z,57.18
2023-05-10T20:30:40.291Z,57.76
2023-05-10T20:33:07.811Z,57.83
2023-05-10T20:35:35.275Z,57.27
2023-05-10T20:38:01.868Z,57.90
2023-05-10T20:40:28.710Z,58.72
2023-05-10T20:42:55.894Z,58.75
2023-05-10T20:45:22.878Z,58.83
2023-05-10T20:47:49.669Z,59.24
2023-05-10T20:50:16.733Z,59.38
2023-05-10T20:52:43.806Z,60.04
2023-05-10T20:55:10.450Z,60.32
2023-05-10T20:57:37.104Z,60.11
2023-05-10T21:00:05.052Z,59.92
2023-05-10T21:02:31.846Z,60.51
2023-05-10T21:04:58.993Z,60.57
2023-05-10T21:07:25.538Z,60.14
2023-05-10T21:09:52.123Z,60.55
2023-05-10T21:12:18.778Z,60.70
2023-05-10T21:14:47.088Z,61.18
2023-05-10T21:17:14.100Z,61.07
2023-05-10T21:19:40.642Z,60.47
2023-05-10T21:22:07.639Z,60.53
2023-05-10T21:24:34.711Z,60.92
2023-05-10T21:27:02.189Z,60.49
2023-05-10T21:29:28.809Z,60.48
2023-05-10T21:31:55.628Z,60.62
2023-05-10T21:34:22.859Z,60.29
2023-05-10T21:36:49.429Z,60.02
2023-05-10T21:39:16.274Z,60.27
2023-05-10T21:41:43.005Z,60.50
2023-05-10T21:44:10.868Z,61.45
2023-05-10T21:46:37.485Z,60.94
2023-05-10T21:49:04.101Z,61.11
2023-05-10T21:51:30.893Z,61.63
2023-05-10T21:53:57.839Z,61.31
2023-05-10T21:56:24.646Z,61.25
2023-05-10T21:58:51.527Z,61.16
2023-05-10T22:01:18.518Z,61.95
2023-05-10T22:03:45.701Z,61.81
2023-05-10T22:06:12.306Z,62.38
2023-05-10T22:08:38.931Z,62.50
2023-05-10T22:11:05.573Z,62.44
2023-05-10T22:13:32.227Z,62.56
2023-05-10T22:15:59.418Z,62.87
2023-05-10T22:18:26.308Z,63.15
2023-05-10T22:20:52.950Z,63.97
2023-05-10T22:23:19.457Z,64.17
2023-05-10T22:25:46.204Z,64.41
2023-05-10T22:28:12.944Z,64.53
2023-05-10T22:30:41.047Z,64.93
2023-05-10T22:33:07.689Z,65.04
2023-05-10T22:35:34.220Z,65.22
2023-05-10T22:38:01.013Z,65.58
2023-05-10T22:40:27.631Z,65.91
2023-05-10T22:42:54.203Z,65.86
2023-05-10T22:45:20.864Z,66.29
2023-05-10T22:47:47.685Z,66.19
2023-05-10T22:50:14.969Z,66.14
2023-05-10T22:52:42.004Z,66.70
2023-05-10T22:55:08.977Z,66.57
2023-05-10T22:57:35.807Z,66.98
2023-05-10T23:00:03.853Z,66.98
2023-05-10T23:02:31.549Z,67.34
2023-05-10T23:04:58.736Z,67.55
2023-05-10T23:07:25.544Z,68.22
2023-05-10T23:09:52.125Z,68.80
2023-05-10T23:12:18.669Z,68.92
2023-05-10T23:14:48.716Z,68.85
2023-05-10T23:17:15.861Z,68.82
2023-05-10T23:19:42.631Z,68.35
2023-05-10T23:22:09.430Z,68.30
2023-05-10T23:24:36.296Z,68.00
2023-05-10T23:27:03.237Z,67.85
2023-05-10T23:29:31.456Z,67.50
2023-05-10T23:31:58.251Z,68.00
2023-05-10T23:34:24.929Z,68.48
2023-05-10T23:36:51.483Z,68.22
2023-05-10T23:39:18.471Z,68.26
2023-05-10T23:41:45.106Z,68.35
2023-05-10T23:44:11.963Z,68.51
2023-05-10T23:46:38.600Z,68.75
2023-05-10T23:49:05.583Z,68.80
2023-05-10T23:51:32.313Z,69.32
2023-05-10T23:53:58.959Z,69.42
2023-05-10T23:56:26.296Z,70.27
2023-05-10T23:58:53.112Z,70.58
